sensor_id;sensor_type;location;lat;lon;timestamp;P1;durP1;ratioP1;P2;durP2;ratioP2
65757;SDS011;52495;52.208;5.158;2024-01-06T00:01:00;9.60;;;5.05;;
65757;SDS011;52495;52.208;5.158;2024-01-06T00:03:27;9.75;;;7.05;;
65757;SDS011;52495;52.208;5.158;2024-01-06T00:05:54;10.50;;;6.47;;
65757;SDS011;52495;52.208;5.158;2024-01-06T00:08:20;9.13;;;6.22;;
65757;SDS011;52495;52.208;5.158;2024-01-06T00:10:47;8.15;;;4.97;;
65757;SDS011;52495;52.208;5.158;2024-01-06T00:13:14;8.52;;;5.65;;
65757;SDS011;52495;52.208;5.158;2024-01-06T00:15:41;8.00;;;5.40;;
65757;SDS011;52495;52.208;5.158;2024-01-06T00:18:09;8.07;;;4.72;;
65757;SDS011;52495;52.208;5.158;2024-01-06T00:20:35;8.38;;;5.22;;
65757;SDS011;52495;52.208;5.158;2024-01-06T00:23:02;7.22;;;4.80;;
65757;SDS011;52495;52.208;5.158;2024-01-06T00:25:29;6.35;;;4.40;;
65757;SDS011;52495;52.208;5.158;2024-01-06T00:27:56;7.70;;;4.93;;
65757;SDS011;52495;52.208;5.158;2024-01-06T00:30:23;7.60;;;4.97;;
65757;SDS011;52495;52.208;5.158;2024-01-06T00:32:49;6.80;;;4.65;;
65757;SDS011;52495;52.208;5.158;2024-01-06T00:35:17;7.78;;;5.20;;
65757;SDS011;52495;52.208;5.158;2024-01-06T00:37:45;6.95;;;3.85;;
65757;SDS011;52495;52.208;5.158;2024-01-06T00:40:12;5.57;;;4.13;;
65757;SDS011;52495;52.208;5.158;2024-01-06T00:42:39;4.57;;;3.10;;
65757;SDS011;52495;52.208;5.158;2024-01-06T00:45:06;4.78;;;3.25;;
65757;SDS011;52495;52.208;5.158;2024-01-06T00:47:33;4.20;;;3.22;;
65757;SDS011;52495;52.208;5.158;2024-01-06T00:50:00;5.60;;;3.40;;
65757;SDS011;52495;52.208;5.158;2024-01-06T00:52:28;3.63;;;2.63;;
65757;SDS011;52495;52.208;5.158;2024-01-06T00:54:55;5.10;;;3.17;;
65757;SDS011;52495;52.208;5.158;2024-01-06T00:57:21;4.53;;;3.42;;
65757;SDS011;52495;52.208;5.158;2024-01-06T00:59:49;5.32;;;3.58;;
65757;SDS011;52495;52.208;5.158;2024-01-06T01:02:16;5.13;;;4.10;;
65757;SDS011;52495;52.208;5.158;2024-01-06T01:04:43;6.57;;;3.83;;
65757;SDS011;52495;52.208;5.158;2024-01-06T01:07:09;5.55;;;3.53;;
65757;SDS011;52495;52.208;5.158;2024-01-06T01:09:38;4.47;;;3.55;;
65757;SDS011;52495;52.208;5.158;2024-01-06T01:12:04;6.93;;;4.00;;
65757;SDS011;52495;52.208;5.158;2024-01-06T01:14:31;5.00;;;3.80;;
65757;SDS011;52495;52.208;5.158;2024-01-06T01:16:58;7.35;;;3.90;;
65757;SDS011;52495;52.208;5.158;2024-01-06T01:19:25;5.40;;;4.00;;
65757;SDS011;52495;52.208;5.158;2024-01-06T01:21:51;5.05;;;4.00;;
65757;SDS011;52495;52.208;5.158;2024-01-06T01:24:20;6.22;;;4.35;;
65757;SDS011;52495;52.208;5.158;2024-01-06T01:26:49;5.80;;;3.95;;
65757;SDS011;52495;52.208;5.158;2024-01-06T01:29:15;5.20;;;3.78;;
65757;SDS011;52495;52.208;5.158;2024-01-06T01:31:42;9.70;;;4.35;;
65757;SDS011;52495;52.208;5.158;2024-01-06T01:36:36;6.47;;;4.20;;
65757;SDS011;52495;52.208;5.158;2024-01-06T01:39:02;7.75;;;5.07;;
65757;SDS011;52495;52.208;5.158;2024-01-06T01:41:29;5.80;;;3.80;;
65757;SDS011;52495;52.208;5.158;2024-01-06T01:43:57;7.45;;;4.43;;
65757;SDS011;52495;52.208;5.158;2024-01-06T01:46:25;10.63;;;4.10;;
65757;SDS011;52495;52.208;5.158;2024-01-06T01:48:52;7.25;;;3.35;;
65757;SDS011;52495;52.208;5.158;2024-01-06T01:51:20;4.85;;;3.65;;
65757;SDS011;52495;52.208;5.158;2024-01-06T01:53:47;5.15;;;3.28;;
65757;SDS011;52495;52.208;5.158;2024-01-06T01:56:14;4.97;;;3.35;;
65757;SDS011;52495;52.208;5.158;2024-01-06T01:58:41;7.43;;;3.60;;
65757;SDS011;52495;52.208;5.158;2024-01-06T02:01:09;4.25;;;2.72;;
65757;SDS011;52495;52.208;5.158;2024-01-06T02:03:37;5.30;;;3.00;;
65757;SDS011;52495;52.208;5.158;2024-01-06T02:06:04;5.75;;;3.60;;
65757;SDS011;52495;52.208;5.158;2024-01-06T02:08:31;5.53;;;3.10;;
65757;SDS011;52495;52.208;5.158;2024-01-06T02:10:58;5.25;;;3.35;;
65757;SDS011;52495;52.208;5.158;2024-01-06T02:13:32;6.47;;;3.40;;
65757;SDS011;52495;52.208;5.158;2024-01-06T02:15:59;4.38;;;3.45;;
65757;SDS011;52495;52.208;5.158;2024-01-06T02:18:27;6.63;;;3.40;;
65757;SDS011;52495;52.208;5.158;2024-01-06T02:20:55;6.20;;;3.63;;
65757;SDS011;52495;52.208;5.158;2024-01-06T02:23:25;5.22;;;3.60;;
65757;SDS011;52495;52.208;5.158;2024-01-06T02:25:52;5.22;;;4.18;;
65757;SDS011;52495;52.208;5.158;2024-01-06T02:28:19;4.43;;;3.25;;
65757;SDS011;52495;52.208;5.158;2024-01-06T02:30:46;4.80;;;2.97;;
65757;SDS011;52495;52.208;5.158;2024-01-06T02:33:13;4.50;;;3.28;;
65757;SDS011;52495;52.208;5.158;2024-01-06T02:35:39;5.20;;;3.35;;
65757;SDS011;52495;52.208;5.158;2024-01-06T02:38:06;6.38;;;3.78;;
65757;SDS011;52495;52.208;5.158;2024-01-06T02:40:35;5.60;;;3.30;;
65757;SDS011;52495;52.208;5.158;2024-01-06T02:43:01;5.13;;;3.40;;
65757;SDS011;52495;52.208;5.158;2024-01-06T02:45:28;7.70;;;3.75;;
65757;SDS011;52495;52.208;5.158;2024-01-06T02:47:55;4.90;;;3.78;;
65757;SDS011;52495;52.208;5.158;2024-01-06T02:50:22;8.10;;;3.90;;
65757;SDS011;52495;52.208;5.158;2024-01-06T02:52:48;5.03;;;3.90;;
65757;SDS011;52495;52.208;5.158;2024-01-06T02:55:15;5.40;;;3.67;;
65757;SDS011;52495;52.208;5.158;2024-01-06T02:57:43;6.60;;;3.60;;
65757;SDS011;52495;52.208;5.158;2024-01-06T03:00:10;6.85;;;4.15;;
65757;SDS011;52495;52.208;5.158;2024-01-06T03:02:38;5.80;;;3.78;;
65757;SDS011;52495;52.208;5.158;2024-01-06T03:05:07;6.80;;;4.18;;
65757;SDS011;52495;52.208;5.158;2024-01-06T03:07:34;7.57;;;4.60;;
65757;SDS011;52495;52.208;5.158;2024-01-06T03:10:01;5.45;;;3.95;;
65757;SDS011;52495;52.208;5.158;2024-01-06T03:12:28;7.22;;;4.35;;
65757;SDS011;52495;52.208;5.158;2024-01-06T03:14:56;8.30;;;4.70;;
65757;SDS011;52495;52.208;5.158;2024-01-06T03:17:22;7.00;;;4.32;;
65757;SDS011;52495;52.208;5.158;2024-01-06T03:19:49;8.95;;;4.80;;
65757;SDS011;52495;52.208;5.158;2024-01-06T03:22:16;7.53;;;4.80;;
65757;SDS011;52495;52.208;5.158;2024-01-06T03:24:43;6.43;;;4.30;;
65757;SDS011;52495;52.208;5.158;2024-01-06T03:27:09;6.45;;;4.18;;
65757;SDS011;52495;52.208;5.158;2024-01-06T03:29:37;8.15;;;4.82;;
65757;SDS011;52495;52.208;5.158;2024-01-06T03:32:06;6.28;;;4.30;;
65757;SDS011;52495;52.208;5.158;2024-01-06T03:34:32;9.00;;;4.97;;
65757;SDS011;52495;52.208;5.158;2024-01-06T03:36:59;6.57;;;4.65;;
65757;SDS011;52495;52.208;5.158;2024-01-06T03:39:26;7.20;;;4.30;;
65757;SDS011;52495;52.208;5.158;2024-01-06T03:41:52;7.70;;;5.03;;
65757;SDS011;52495;52.208;5.158;2024-01-06T03:44:19;10.35;;;6.15;;
65757;SDS011;52495;52.208;5.158;2024-01-06T03:46:46;7.60;;;4.78;;
65757;SDS011;52495;52.208;5.158;2024-01-06T03:49:14;8.23;;;5.40;;
65757;SDS011;52495;52.208;5.158;2024-01-06T03:51:43;8.27;;;5.18;;
65757;SDS011;52495;52.208;5.158;2024-01-06T03:54:10;9.73;;;4.68;;
65757;SDS011;52495;52.208;5.158;2024-01-06T03:56:37;8.88;;;5.78;;
65757;SDS011;52495;52.208;5.158;2024-01-06T03:59:03;6.85;;;4.97;;
65757;SDS011;52495;52.208;5.158;2024-01-06T04:01:30;9.77;;;4.97;;
65757;SDS011;52495;52.208;5.158;2024-01-06T04:03:59;6.97;;;4.93;;
65757;SDS011;52495;52.208;5.158;2024-01-06T04:06:28;8.18;;;5.93;;
65757;SDS011;52495;52.208;5.158;2024-01-06T04:08:54;8.13;;;4.57;;
65757;SDS011;52495;52.208;5.158;2024-01-06T04:11:21;6.97;;;5.30;;
65757;SDS011;52495;52.208;5.158;2024-01-06T04:13:48;9.48;;;5.40;;
65757;SDS011;52495;52.208;5.158;2024-01-06T04:16:15;7.20;;;4.93;;
65757;SDS011;52495;52.208;5.158;2024-01-06T04:18:41;9.93;;;4.78;;
65757;SDS011;52495;52.208;5.158;2024-01-06T04:21:08;8.20;;;5.35;;
65757;SDS011;52495;52.208;5.158;2024-01-06T04:23:37;7.85;;;4.72;;
65757;SDS011;52495;52.208;5.158;2024-01-06T04:26:04;7.20;;;4.28;;
65757;SDS011;52495;52.208;5.158;2024-01-06T04:28:32;9.90;;;5.65;;
65757;SDS011;52495;52.208;5.158;2024-01-06T04:30:58;8.38;;;5.55;;
65757;SDS011;52495;52.208;5.158;2024-01-06T04:33:25;8.18;;;5.80;;
65757;SDS011;52495;52.208;5.158;2024-01-06T04:35:52;8.98;;;5.72;;
65757;SDS011;52495;52.208;5.158;2024-01-06T04:38:19;8.50;;;5.90;;
65757;SDS011;52495;52.208;5.158;2024-01-06T04:40:47;10.55;;;5.35;;
65757;SDS011;52495;52.208;5.158;2024-01-06T04:43:13;6.10;;;4.32;;
65757;SDS011;52495;52.208;5.158;2024-01-06T04:45:40;7.80;;;4.95;;
65757;SDS011;52495;52.208;5.158;2024-01-06T04:48:07;8.38;;;4.38;;
65757;SDS011;52495;52.208;5.158;2024-01-06T04:50:33;8.82;;;5.00;;
65757;SDS011;52495;52.208;5.158;2024-01-06T04:53:00;9.52;;;4.32;;
65757;SDS011;52495;52.208;5.158;2024-01-06T04:55:27;7.25;;;4.85;;
65757;SDS011;52495;52.208;5.158;2024-01-06T04:57:55;6.55;;;4.97;;
65757;SDS011;52495;52.208;5.158;2024-01-06T05:00:22;8.55;;;5.63;;
65757;SDS011;52495;52.208;5.158;2024-01-06T05:02:49;11.02;;;5.57;;
65757;SDS011;52495;52.208;5.158;2024-01-06T05:05:16;7.70;;;5.07;;
65757;SDS011;52495;52.208;5.158;2024-01-06T05:07:42;7.07;;;3.92;;
65757;SDS011;52495;52.208;5.158;2024-01-06T05:10:09;7.32;;;4.15;;
65757;SDS011;52495;52.208;5.158;2024-01-06T05:12:37;5.78;;;3.63;;
65757;SDS011;52495;52.208;5.158;2024-01-06T05:15:05;6.38;;;3.25;;
65757;SDS011;52495;52.208;5.158;2024-01-06T05:17:32;5.25;;;3.42;;
65757;SDS011;52495;52.208;5.158;2024-01-06T05:19:59;6.15;;;3.03;;
65757;SDS011;52495;52.208;5.158;2024-01-06T05:22:26;4.88;;;3.10;;
65757;SDS011;52495;52.208;5.158;2024-01-06T05:24:53;4.60;;;3.40;;
65757;SDS011;52495;52.208;5.158;2024-01-06T05:27:20;5.60;;;3.80;;
65757;SDS011;52495;52.208;5.158;2024-01-06T05:29:47;5.50;;;3.00;;
65757;SDS011;52495;52.208;5.158;2024-01-06T05:32:16;6.78;;;4.32;;
65757;SDS011;52495;52.208;5.158;2024-01-06T05:34:43;8.77;;;4.70;;
65757;SDS011;52495;52.208;5.158;2024-01-06T05:37:10;9.85;;;5.28;;
65757;SDS011;52495;52.208;5.158;2024-01-06T05:39:37;9.45;;;5.35;;
65757;SDS011;52495;52.208;5.158;2024-01-06T05:42:05;10.73;;;5.03;;
65757;SDS011;52495;52.208;5.158;2024-01-06T05:44:34;6.72;;;4.35;;
65757;SDS011;52495;52.208;5.158;2024-01-06T05:47:01;6.40;;;4.07;;
65757;SDS011;52495;52.208;5.158;2024-01-06T05:49:30;8.18;;;4.72;;
65757;SDS011;52495;52.208;5.158;2024-01-06T05:51:56;7.30;;;5.28;;
65757;SDS011;52495;52.208;5.158;2024-01-06T05:54:23;12.55;;;5.68;;
65757;SDS011;52495;52.208;5.158;2024-01-06T05:56:50;6.80;;;4.80;;
65757;SDS011;52495;52.208;5.158;2024-01-06T05:59:16;7.47;;;5.45;;
65757;SDS011;52495;52.208;5.158;2024-01-06T06:01:43;7.25;;;4.88;;
65757;SDS011;52495;52.208;5.158;2024-01-06T06:04:10;8.02;;;5.13;;
65757;SDS011;52495;52.208;5.158;2024-01-06T06:06:39;6.85;;;4.63;;
65757;SDS011;52495;52.208;5.158;2024-01-06T06:09:05;9.32;;;4.80;;
65757;SDS011;52495;52.208;5.158;2024-01-06T06:11:35;6.15;;;4.38;;
65757;SDS011;52495;52.208;5.158;2024-01-06T06:14:02;6.60;;;3.78;;
65757;SDS011;52495;52.208;5.158;2024-01-06T06:16:29;7.25;;;3.80;;
65757;SDS011;52495;52.208;5.158;2024-01-06T06:18:56;6.25;;;3.45;;
65757;SDS011;52495;52.208;5.158;2024-01-06T06:21:23;4.97;;;3.53;;
65757;SDS011;52495;52.208;5.158;2024-01-06T06:23:51;6.35;;;3.47;;
65757;SDS011;52495;52.208;5.158;2024-01-06T06:26:18;6.45;;;3.72;;
65757;SDS011;52495;52.208;5.158;2024-01-06T06:28:44;7.20;;;3.67;;
65757;SDS011;52495;52.208;5.158;2024-01-06T06:31:11;7.00;;;3.90;;
65757;SDS011;52495;52.208;5.158;2024-01-06T06:33:38;4.65;;;3.05;;
65757;SDS011;52495;52.208;5.158;2024-01-06T06:36:05;6.15;;;3.58;;
65757;SDS011;52495;52.208;5.158;2024-01-06T06:38:32;5.60;;;3.13;;
65757;SDS011;52495;52.208;5.158;2024-01-06T06:41:00;6.75;;;3.83;;
65757;SDS011;52495;52.208;5.158;2024-01-06T06:43:27;5.90;;;3.22;;
65757;SDS011;52495;52.208;5.158;2024-01-06T06:45:54;8.45;;;4.18;;
65757;SDS011;52495;52.208;5.158;2024-01-06T06:48:21;7.38;;;3.85;;
65757;SDS011;52495;52.208;5.158;2024-01-06T06:50:48;6.22;;;4.00;;
65757;SDS011;52495;52.208;5.158;2024-01-06T06:53:15;7.22;;;4.72;;
65757;SDS011;52495;52.208;5.158;2024-01-06T06:55:42;7.28;;;4.55;;
65757;SDS011;52495;52.208;5.158;2024-01-06T06:58:10;6.95;;;4.80;;
65757;SDS011;52495;52.208;5.158;2024-01-06T07:00:37;8.20;;;4.32;;
65757;SDS011;52495;52.208;5.158;2024-01-06T07:03:04;8.73;;;5.65;;
65757;SDS011;52495;52.208;5.158;2024-01-06T07:05:31;7.68;;;5.15;;
65757;SDS011;52495;52.208;5.158;2024-01-06T07:07:59;6.65;;;4.28;;
65757;SDS011;52495;52.208;5.158;2024-01-06T07:10:27;10.65;;;5.10;;
65757;SDS011;52495;52.208;5.158;2024-01-06T07:13:01;8.60;;;4.17;;
65757;SDS011;52495;52.208;5.158;2024-01-06T07:15:30;10.10;;;5.00;;
65757;SDS011;52495;52.208;5.158;2024-01-06T07:17:57;12.00;;;6.00;;
65757;SDS011;52495;52.208;5.158;2024-01-06T07:20:23;11.52;;;5.38;;
65757;SDS011;52495;52.208;5.158;2024-01-06T07:22:50;12.60;;;5.70;;
65757;SDS011;52495;52.208;5.158;2024-01-06T07:25:17;7.80;;;4.50;;
65757;SDS011;52495;52.208;5.158;2024-01-06T07:27:44;9.13;;;5.65;;
65757;SDS011;52495;52.208;5.158;2024-01-06T07:30:11;5.35;;;4.25;;
65757;SDS011;52495;52.208;5.158;2024-01-06T07:32:39;8.40;;;5.03;;
65757;SDS011;52495;52.208;5.158;2024-01-06T07:35:07;10.25;;;5.40;;
65757;SDS011;52495;52.208;5.158;2024-01-06T07:37:34;7.22;;;4.28;;
65757;SDS011;52495;52.208;5.158;2024-01-06T07:40:01;6.75;;;4.63;;
65757;SDS011;52495;52.208;5.158;2024-01-06T07:42:28;6.93;;;4.15;;
65757;SDS011;52495;52.208;5.158;2024-01-06T07:44:55;6.53;;;4.20;;
65757;SDS011;52495;52.208;5.158;2024-01-06T07:47:21;7.88;;;4.55;;
65757;SDS011;52495;52.208;5.158;2024-01-06T07:49:50;9.00;;;4.93;;
65757;SDS011;52495;52.208;5.158;2024-01-06T07:52:18;6.65;;;3.55;;
65757;SDS011;52495;52.208;5.158;2024-01-06T07:54:45;5.50;;;4.32;;
65757;SDS011;52495;52.208;5.158;2024-01-06T07:57:11;7.70;;;4.60;;
65757;SDS011;52495;52.208;5.158;2024-01-06T07:59:38;7.20;;;3.75;;
65757;SDS011;52495;52.208;5.158;2024-01-06T08:02:05;7.70;;;4.30;;
65757;SDS011;52495;52.208;5.158;2024-01-06T08:04:32;6.28;;;4.03;;
65757;SDS011;52495;52.208;5.158;2024-01-06T08:07:00;5.60;;;4.22;;
65757;SDS011;52495;52.208;5.158;2024-01-06T08:09:27;6.35;;;4.07;;
65757;SDS011;52495;52.208;5.158;2024-01-06T08:11:53;7.07;;;3.78;;
65757;SDS011;52495;52.208;5.158;2024-01-06T08:14:20;8.20;;;4.15;;
65757;SDS011;52495;52.208;5.158;2024-01-06T08:16:47;10.13;;;4.85;;
65757;SDS011;52495;52.208;5.158;2024-01-06T08:19:14;6.50;;;3.90;;
65757;SDS011;52495;52.208;5.158;2024-01-06T08:21:41;9.73;;;4.07;;
65757;SDS011;52495;52.208;5.158;2024-01-06T08:24:09;7.32;;;3.65;;
65757;SDS011;52495;52.208;5.158;2024-01-06T08:26:36;7.32;;;4.28;;
65757;SDS011;52495;52.208;5.158;2024-01-06T08:29:02;7.72;;;4.40;;
65757;SDS011;52495;52.208;5.158;2024-01-06T08:31:29;6.55;;;3.67;;
65757;SDS011;52495;52.208;5.158;2024-01-06T08:33:56;6.10;;;3.55;;
65757;SDS011;52495;52.208;5.158;2024-01-06T08:36:22;4.45;;;3.33;;
65757;SDS011;52495;52.208;5.158;2024-01-06T08:38:49;5.43;;;3.60;;
65757;SDS011;52495;52.208;5.158;2024-01-06T08:41:17;7.25;;;3.55;;
65757;SDS011;52495;52.208;5.158;2024-01-06T08:43:44;7.25;;;3.67;;
65757;SDS011;52495;52.208;5.158;2024-01-06T08:46:11;7.45;;;3.55;;
65757;SDS011;52495;52.208;5.158;2024-01-06T08:48:38;8.38;;;4.28;;
65757;SDS011;52495;52.208;5.158;2024-01-06T08:51:04;5.22;;;3.33;;
65757;SDS011;52495;52.208;5.158;2024-01-06T08:53:31;6.10;;;3.67;;
65757;SDS011;52495;52.208;5.158;2024-01-06T08:55:58;6.32;;;3.40;;
65757;SDS011;52495;52.208;5.158;2024-01-06T08:58:26;6.38;;;3.22;;
65757;SDS011;52495;52.208;5.158;2024-01-06T09:00:53;8.07;;;3.10;;
65757;SDS011;52495;52.208;5.158;2024-01-06T09:03:20;12.50;;;3.58;;
65757;SDS011;52495;52.208;5.158;2024-01-06T09:05:51;6.30;;;3.03;;
65757;SDS011;52495;52.208;5.158;2024-01-06T09:08:18;8.88;;;3.28;;
65757;SDS011;52495;52.208;5.158;2024-01-06T09:10:45;6.93;;;3.58;;
65757;SDS011;52495;52.208;5.158;2024-01-06T09:13:12;9.65;;;3.20;;
65757;SDS011;52495;52.208;5.158;2024-01-06T09:15:40;6.35;;;3.38;;
65757;SDS011;52495;52.208;5.158;2024-01-06T09:18:07;6.22;;;2.97;;
65757;SDS011;52495;52.208;5.158;2024-01-06T09:20:34;7.20;;;3.38;;
65757;SDS011;52495;52.208;5.158;2024-01-06T09:23:01;9.27;;;3.53;;
65757;SDS011;52495;52.208;5.158;2024-01-06T09:25:27;6.40;;;3.90;;
65757;SDS011;52495;52.208;5.158;2024-01-06T09:27:55;6.85;;;3.33;;
65757;SDS011;52495;52.208;5.158;2024-01-06T09:30:22;6.40;;;3.20;;
65757;SDS011;52495;52.208;5.158;2024-01-06T09:32:50;5.15;;;3.17;;
65757;SDS011;52495;52.208;5.158;2024-01-06T09:35:16;7.60;;;3.78;;
65757;SDS011;52495;52.208;5.158;2024-01-06T09:37:43;7.40;;;3.33;;
65757;SDS011;52495;52.208;5.158;2024-01-06T09:40:10;8.02;;;3.92;;
65757;SDS011;52495;52.208;5.158;2024-01-06T09:42:39;4.78;;;2.92;;
65757;SDS011;52495;52.208;5.158;2024-01-06T09:45:06;6.47;;;3.33;;
65757;SDS011;52495;52.208;5.158;2024-01-06T09:47:34;8.57;;;3.65;;
65757;SDS011;52495;52.208;5.158;2024-01-06T09:50:04;7.03;;;4.43;;
65757;SDS011;52495;52.208;5.158;2024-01-06T09:52:36;7.40;;;3.35;;
65757;SDS011;52495;52.208;5.158;2024-01-06T09:55:06;5.80;;;3.22;;
65757;SDS011;52495;52.208;5.158;2024-01-06T09:57:37;5.97;;;3.30;;
65757;SDS011;52495;52.208;5.158;2024-01-06T10:00:05;9.00;;;3.70;;
65757;SDS011;52495;52.208;5.158;2024-01-06T10:02:37;6.32;;;3.00;;
65757;SDS011;52495;52.208;5.158;2024-01-06T10:05:05;7.30;;;3.30;;
65757;SDS011;52495;52.208;5.158;2024-01-06T10:07:32;6.47;;;4.28;;
65757;SDS011;52495;52.208;5.158;2024-01-06T10:09:59;4.80;;;3.35;;
65757;SDS011;52495;52.208;5.158;2024-01-06T10:12:27;5.20;;;3.15;;
65757;SDS011;52495;52.208;5.158;2024-01-06T10:14:54;7.65;;;3.72;;
65757;SDS011;52495;52.208;5.158;2024-01-06T10:17:21;6.88;;;3.42;;
65757;SDS011;52495;52.208;5.158;2024-01-06T10:19:48;6.43;;;3.95;;
65757;SDS011;52495;52.208;5.158;2024-01-06T10:22:19;5.35;;;3.47;;
65757;SDS011;52495;52.208;5.158;2024-01-06T10:24:45;6.40;;;3.45;;
65757;SDS011;52495;52.208;5.158;2024-01-06T10:27:12;5.63;;;3.70;;
65757;SDS011;52495;52.208;5.158;2024-01-06T10:29:39;5.97;;;2.97;;
65757;SDS011;52495;52.208;5.158;2024-01-06T10:32:06;6.13;;;3.03;;
65757;SDS011;52495;52.208;5.158;2024-01-06T10:34:32;6.57;;;3.53;;
65757;SDS011;52495;52.208;5.158;2024-01-06T10:37:02;6.05;;;3.80;;
65757;SDS011;52495;52.208;5.158;2024-01-06T10:39:32;3.95;;;2.78;;
65757;SDS011;52495;52.208;5.158;2024-01-06T10:41:59;4.15;;;2.72;;
65757;SDS011;52495;52.208;5.158;2024-01-06T10:44:29;6.25;;;3.45;;
65757;SDS011;52495;52.208;5.158;2024-01-06T10:46:57;5.05;;;3.17;;
65757;SDS011;52495;52.208;5.158;2024-01-06T10:49:27;7.18;;;4.00;;
65757;SDS011;52495;52.208;5.158;2024-01-06T10:51:56;5.53;;;3.08;;
65757;SDS011;52495;52.208;5.158;2024-01-06T10:54:24;6.85;;;3.90;;
65757;SDS011;52495;52.208;5.158;2024-01-06T10:56:54;5.80;;;3.42;;
65757;SDS011;52495;52.208;5.158;2024-01-06T10:59:23;5.45;;;3.08;;
65757;SDS011;52495;52.208;5.158;2024-01-06T11:01:54;5.90;;;3.25;;
65757;SDS011;52495;52.208;5.158;2024-01-06T11:04:21;5.03;;;2.95;;
65757;SDS011;52495;52.208;5.158;2024-01-06T11:06:49;6.28;;;3.00;;
65757;SDS011;52495;52.208;5.158;2024-01-06T11:09:18;4.70;;;3.30;;
65757;SDS011;52495;52.208;5.158;2024-01-06T11:11:47;9.15;;;3.50;;
65757;SDS011;52495;52.208;5.158;2024-01-06T11:14:21;5.05;;;3.25;;
65757;SDS011;52495;52.208;5.158;2024-01-06T11:16:49;4.40;;;3.25;;
65757;SDS011;52495;52.208;5.158;2024-01-06T11:22:19;5.18;;;3.80;;
65757;SDS011;52495;52.208;5.158;2024-01-06T11:24:54;4.38;;;3.55;;
65757;SDS011;52495;52.208;5.158;2024-01-06T11:27:22;4.75;;;2.97;;
65757;SDS011;52495;52.208;5.158;2024-01-06T11:29:53;6.55;;;3.28;;
65757;SDS011;52495;52.208;5.158;2024-01-06T11:32:24;7.07;;;4.35;;
65757;SDS011;52495;52.208;5.158;2024-01-06T11:34:53;5.72;;;4.43;;
65757;SDS011;52495;52.208;5.158;2024-01-06T11:37:25;9.00;;;4.00;;
65757;SDS011;52495;52.208;5.158;2024-01-06T11:40:01;8.75;;;3.40;;
65757;SDS011;52495;52.208;5.158;2024-01-06T11:42:31;9.35;;;3.75;;
65757;SDS011;52495;52.208;5.158;2024-01-06T11:45:02;8.63;;;4.15;;
65757;SDS011;52495;52.208;5.158;2024-01-06T11:47:31;10.23;;;3.78;;
65757;SDS011;52495;52.208;5.158;2024-01-06T11:49:58;6.43;;;3.70;;
65757;SDS011;52495;52.208;5.158;2024-01-06T11:52:28;9.07;;;4.95;;
65757;SDS011;52495;52.208;5.158;2024-01-06T11:54:56;6.63;;;3.97;;
65757;SDS011;52495;52.208;5.158;2024-01-06T11:57:24;9.27;;;4.07;;
65757;SDS011;52495;52.208;5.158;2024-01-06T11:59:51;8.52;;;4.68;;
65757;SDS011;52495;52.208;5.158;2024-01-06T12:02:19;9.07;;;4.55;;
65757;SDS011;52495;52.208;5.158;2024-01-06T12:04:48;7.80;;;4.65;;
65757;SDS011;52495;52.208;5.158;2024-01-06T12:07:16;6.95;;;3.92;;
65757;SDS011;52495;52.208;5.158;2024-01-06T12:09:43;5.90;;;3.90;;
65757;SDS011;52495;52.208;5.158;2024-01-06T12:12:09;6.60;;;4.25;;
65757;SDS011;52495;52.208;5.158;2024-01-06T12:14:39;7.30;;;3.50;;
65757;SDS011;52495;52.208;5.158;2024-01-06T12:17:07;8.20;;;3.85;;
65757;SDS011;52495;52.208;5.158;2024-01-06T12:19:35;6.03;;;3.58;;
65757;SDS011;52495;52.208;5.158;2024-01-06T12:22:03;6.95;;;4.22;;
65757;SDS011;52495;52.208;5.158;2024-01-06T12:24:29;9.40;;;3.55;;
65757;SDS011;52495;52.208;5.158;2024-01-06T12:26:57;7.03;;;3.70;;
65757;SDS011;52495;52.208;5.158;2024-01-06T12:29:26;7.70;;;3.83;;
65757;SDS011;52495;52.208;5.158;2024-01-06T12:31:53;5.50;;;4.15;;
65757;SDS011;52495;52.208;5.158;2024-01-06T12:34:20;10.13;;;5.32;;
65757;SDS011;52495;52.208;5.158;2024-01-06T12:36:48;9.88;;;5.32;;
65757;SDS011;52495;52.208;5.158;2024-01-06T12:39:19;10.43;;;4.47;;
65757;SDS011;52495;52.208;5.158;2024-01-06T12:41:46;6.90;;;4.07;;
65757;SDS011;52495;52.208;5.158;2024-01-06T12:44:12;6.78;;;3.95;;
65757;SDS011;52495;52.208;5.158;2024-01-06T12:46:39;7.63;;;4.68;;
65757;SDS011;52495;52.208;5.158;2024-01-06T12:49:06;8.90;;;4.38;;
65757;SDS011;52495;52.208;5.158;2024-01-06T12:51:33;7.00;;;4.63;;
65757;SDS011;52495;52.208;5.158;2024-01-06T12:54:01;9.43;;;5.93;;
65757;SDS011;52495;52.208;5.158;2024-01-06T12:56:28;9.90;;;5.00;;
65757;SDS011;52495;52.208;5.158;2024-01-06T12:58:54;8.25;;;5.60;;
65757;SDS011;52495;52.208;5.158;2024-01-06T13:01:21;9.98;;;5.25;;
65757;SDS011;52495;52.208;5.158;2024-01-06T13:03:48;8.13;;;5.03;;
65757;SDS011;52495;52.208;5.158;2024-01-06T13:06:15;7.10;;;4.80;;
65757;SDS011;52495;52.208;5.158;2024-01-06T13:08:44;8.02;;;3.70;;
65757;SDS011;52495;52.208;5.158;2024-01-06T13:11:12;8.85;;;4.75;;
65757;SDS011;52495;52.208;5.158;2024-01-06T13:13:39;7.75;;;4.50;;
65757;SDS011;52495;52.208;5.158;2024-01-06T13:16:06;9.30;;;5.25;;
65757;SDS011;52495;52.208;5.158;2024-01-06T13:18:34;8.65;;;4.35;;
65757;SDS011;52495;52.208;5.158;2024-01-06T13:21:01;8.57;;;4.97;;
65757;SDS011;52495;52.208;5.158;2024-01-06T13:23:28;7.43;;;3.92;;
65757;SDS011;52495;52.208;5.158;2024-01-06T13:25:55;8.25;;;5.10;;
65757;SDS011;52495;52.208;5.158;2024-01-06T13:28:24;6.80;;;5.10;;
65757;SDS011;52495;52.208;5.158;2024-01-06T13:30:51;9.93;;;5.45;;
65757;SDS011;52495;52.208;5.158;2024-01-06T13:33:18;8.00;;;5.72;;
65757;SDS011;52495;52.208;5.158;2024-01-06T13:35:46;7.75;;;4.50;;
65757;SDS011;52495;52.208;5.158;2024-01-06T13:38:12;6.82;;;4.85;;
65757;SDS011;52495;52.208;5.158;2024-01-06T13:40:39;10.15;;;6.15;;
65757;SDS011;52495;52.208;5.158;2024-01-06T13:43:06;8.27;;;4.78;;
65757;SDS011;52495;52.208;5.158;2024-01-06T13:45:35;11.38;;;5.32;;
65757;SDS011;52495;52.208;5.158;2024-01-06T13:48:02;9.98;;;5.80;;
65757;SDS011;52495;52.208;5.158;2024-01-06T13:50:29;8.75;;;5.65;;
65757;SDS011;52495;52.208;5.158;2024-01-06T13:52:56;18.65;;;6.15;;
65757;SDS011;52495;52.208;5.158;2024-01-06T13:55:23;10.70;;;5.15;;
65757;SDS011;52495;52.208;5.158;2024-01-06T13:57:50;9.20;;;6.22;;
65757;SDS011;52495;52.208;5.158;2024-01-06T14:00:17;7.63;;;4.53;;
65757;SDS011;52495;52.208;5.158;2024-01-06T14:02:46;8.60;;;4.15;;
65757;SDS011;52495;52.208;5.158;2024-01-06T14:05:13;10.25;;;5.72;;
65757;SDS011;52495;52.208;5.158;2024-01-06T14:07:41;9.30;;;4.95;;
65757;SDS011;52495;52.208;5.158;2024-01-06T14:10:10;6.60;;;4.20;;
65757;SDS011;52495;52.208;5.158;2024-01-06T14:12:39;7.35;;;4.80;;
65757;SDS011;52495;52.208;5.158;2024-01-06T14:15:06;9.65;;;4.13;;
65757;SDS011;52495;52.208;5.158;2024-01-06T14:17:34;8.95;;;5.00;;
65757;SDS011;52495;52.208;5.158;2024-01-06T14:20:03;8.90;;;5.07;;
65757;SDS011;52495;52.208;5.158;2024-01-06T14:22:31;10.38;;;5.43;;
65757;SDS011;52495;52.208;5.158;2024-01-06T14:24:57;10.75;;;4.93;;
65757;SDS011;52495;52.208;5.158;2024-01-06T14:27:24;9.55;;;5.68;;
65757;SDS011;52495;52.208;5.158;2024-01-06T14:29:54;8.82;;;4.60;;
65757;SDS011;52495;52.208;5.158;2024-01-06T14:32:21;5.72;;;3.85;;
65757;SDS011;52495;52.208;5.158;2024-01-06T14:34:49;6.60;;;4.25;;
65757;SDS011;52495;52.208;5.158;2024-01-06T14:37:18;9.93;;;4.78;;
65757;SDS011;52495;52.208;5.158;2024-01-06T14:39:44;8.98;;;5.22;;
65757;SDS011;52495;52.208;5.158;2024-01-06T14:42:11;10.48;;;5.20;;
65757;SDS011;52495;52.208;5.158;2024-01-06T14:44:38;10.15;;;5.13;;
65757;SDS011;52495;52.208;5.158;2024-01-06T14:47:05;7.15;;;4.28;;
65757;SDS011;52495;52.208;5.158;2024-01-06T14:49:33;10.35;;;5.82;;
65757;SDS011;52495;52.208;5.158;2024-01-06T14:51:59;7.70;;;4.70;;